Messwerte Kingsville

Temperatur

Temperatur
°C
1576321200 5.00 5.00 9
1576324800 6.00 6.00 8
1576328400 7.00 7.00 7
1576332000 8.00 8.00 10
1576335600 9.00 9.00 14
1576339200 10.00 10.00 19
1576342800 11.00 11.00 24
1576346400 12.00 12.00 30
1576350000 13.00 13.00 32
1576353600 14.00 14.00 32
1576357200 15.00 15.00 33
1576360800 16.00 16.00 32
1576364400 17.00 17.00 30
1576368000 18.00 18.00 26
1576371600 19.00 19.00 22
1576375200 20.00 20.00 19
1576378800 21.00 21.00 17
1576382400 22.00 22.00 17
1576386000 23.00 23.00 17
1576389600 0.00 0.00 16
1576393200 1.00 1.00 13
1576396800 2.00 2.00
1576400400 3.00 3.00 18
1576404000 4.00 4.00 19

Aktuellste Messwerte

Wettercharakter
Wetter: Nebel
Temperatur
19 °C
Feuchtigkeit
96 %
Wind
15 km/hWindrichtung: Süd
Luftdruck
1008 hPa
Messzeit: 15. Dezember 2019, 4.00Datenquelle: METAR

Weitere Messstationen in der Nähe

Messstation Temperatur Entfernung
Robstown 16 °C 32 km
Alice 18 °C 34 km
Corpus Christi 19 °C 42 km
Falfurrias 19 °C 45 km
Corpus Christi 20 °C 55 km
Port Aransas 20 °C 78 km
Hebbronville 10 °C 93 km

Wind

Windrichtung Böen Mittelwind
° km/h km/h
1576321200 5.00 4.00 - 5.00 240° 5
1576324800 6.00 5.00 - 6.00 210° 5
1576328400 7.00 6.00 - 7.00 180° 5
1576332000 8.00 7.00 - 8.00
1576335600 9.00 8.00 - 9.00
1576339200 10.00 9.00 - 10.00 0
1576342800 11.00 10.00 - 11.00 0
1576346400 12.00 11.00 - 12.00 190° 30
1576350000 13.00 12.00 - 13.00 190° 25
1576353600 14.00 13.00 - 14.00 190° 30
1576357200 15.00 14.00 - 15.00 170° 30
1576360800 16.00 15.00 - 16.00 190° 20
1576364400 17.00 16.00 - 17.00 150° 20
1576368000 18.00 17.00 - 18.00 140° 20
1576371600 19.00 18.00 - 19.00 140° 15
1576375200 20.00 19.00 - 20.00 150° 15
1576378800 21.00 20.00 - 21.00 160° 20
1576382400 22.00 21.00 - 22.00 160° 20
1576386000 23.00 22.00 - 23.00 160° 20
1576389600 0.00 23.00 - 0.00 180° 10
1576393200 1.00 0.00 - 1.00 190° 10
1576396800 2.00 1.00 - 2.00
1576400400 3.00 2.00 - 3.00 180° 15
1576404000 4.00 3.00 - 4.00 170° 20

Ihre Wetterstation

Fehlt Ihre Wetterstation auf unserem Portal?

Schreiben Sie an network@meteonews.ch

Klima

Wann ist es am wärmsten? Wann regnet es am wenigsten? Unsere Klimadaten geben Auskunft.